sensor_id;sensor_type;location;lat;lon;timestamp;pressure;altitude;pressure_sealevel;temperature;humidity
23229;BME280;11783;50.350;6.576;2023-03-14T00:00:31;94082.78;;;8.55;100.00
23229;BME280;11783;50.350;6.576;2023-03-14T00:02:57;94083.91;;;8.49;100.00
23229;BME280;11783;50.350;6.576;2023-03-14T00:05:22;94074.97;;;8.45;100.00
23229;BME280;11783;50.350;6.576;2023-03-14T00:07:47;94066.75;;;8.46;100.00
23229;BME280;11783;50.350;6.576;2023-03-14T00:10:14;94074.53;;;8.33;100.00
23229;BME280;11783;50.350;6.576;2023-03-14T00:12:43;94097.56;;;8.37;100.00
23229;BME280;11783;50.350;6.576;2023-03-14T00:15:10;94101.72;;;8.43;100.00
23229;BME280;11783;50.350;6.576;2023-03-14T00:17:36;94089.88;;;8.36;100.00
23229;BME280;11783;50.350;6.576;2023-03-14T00:20:02;94075.06;;;8.35;100.00
23229;BME280;11783;50.350;6.576;2023-03-14T00:22:40;94072.91;;;8.42;100.00
23229;BME280;11783;50.350;6.576;2023-03-14T00:25:08;94067.81;;;8.45;100.00
23229;BME280;11783;50.350;6.576;2023-03-14T00:27:34;94055.44;;;8.41;100.00
23229;BME280;11783;50.350;6.576;2023-03-14T00:30:00;94038.47;;;8.42;100.00
23229;BME280;11783;50.350;6.576;2023-03-14T00:32:25;94048.56;;;8.40;100.00
23229;BME280;11783;50.350;6.576;2023-03-14T00:34:50;94052.00;;;8.40;100.00
23229;BME280;11783;50.350;6.576;2023-03-14T00:37:16;94049.63;;;8.39;100.00
23229;BME280;11783;50.350;6.576;2023-03-14T00:39:41;94061.22;;;8.43;100.00
23229;BME280;11783;50.350;6.576;2023-03-14T00:42:07;94055.44;;;8.41;100.00
23229;BME280;11783;50.350;6.576;2023-03-14T00:44:32;94054.06;;;8.43;100.00
23229;BME280;11783;50.350;6.576;2023-03-14T00:46:58;94053.59;;;8.36;100.00
23229;BME280;11783;50.350;6.576;2023-03-14T00:49:23;94037.41;;;8.43;100.00
23229;BME280;11783;50.350;6.576;2023-03-14T00:51:49;94037.06;;;8.49;100.00
23229;BME280;11783;50.350;6.576;2023-03-14T00:54:14;94034.19;;;8.46;100.00
23229;BME280;11783;50.350;6.576;2023-03-14T00:56:39;94028.81;;;8.51;100.00
23229;BME280;11783;50.350;6.576;2023-03-14T00:59:05;94043.50;;;8.43;100.00
23229;BME280;11783;50.350;6.576;2023-03-14T01:01:30;94053.34;;;8.33;100.00
23229;BME280;11783;50.350;6.576;2023-03-14T01:03:56;94027.16;;;8.36;100.00
23229;BME280;11783;50.350;6.576;2023-03-14T01:06:27;94036.41;;;8.39;100.00
23229;BME280;11783;50.350;6.576;2023-03-14T01:08:53;94026.09;;;8.37;100.00
23229;BME280;11783;50.350;6.576;2023-03-14T01:11:27;94011.16;;;8.23;100.00
23229;BME280;11783;50.350;6.576;2023-03-14T01:13:53;94003.88;;;8.33;100.00
23229;BME280;11783;50.350;6.576;2023-03-14T01:16:19;94019.53;;;8.30;100.00
23229;BME280;11783;50.350;6.576;2023-03-14T01:18:46;94025.66;;;8.25;100.00
23229;BME280;11783;50.350;6.576;2023-03-14T01:21:22;94026.63;;;8.34;100.00
23229;BME280;11783;50.350;6.576;2023-03-14T01:23:48;94044.13;;;8.30;100.00
23229;BME280;11783;50.350;6.576;2023-03-14T01:26:16;94029.59;;;8.28;100.00
23229;BME280;11783;50.350;6.576;2023-03-14T01:28:45;94040.19;;;8.28;100.00
23229;BME280;11783;50.350;6.576;2023-03-14T01:31:12;94050.28;;;8.26;100.00
23229;BME280;11783;50.350;6.576;2023-03-14T01:33:39;94042.06;;;8.27;100.00
23229;BME280;11783;50.350;6.576;2023-03-14T01:36:05;94026.00;;;8.18;100.00
23229;BME280;11783;50.350;6.576;2023-03-14T01:38:32;94027.34;;;8.16;100.00
23229;BME280;11783;50.350;6.576;2023-03-14T01:40:58;94047.69;;;8.20;100.00
23229;BME280;11783;50.350;6.576;2023-03-14T01:43:24;94044.06;;;8.11;100.00
23229;BME280;11783;50.350;6.576;2023-03-14T01:48:30;94049.84;;;8.13;100.00
23229;BME280;11783;50.350;6.576;2023-03-14T01:50:57;94057.78;;;8.13;100.00
23229;BME280;11783;50.350;6.576;2023-03-14T01:53:23;94037.47;;;8.09;100.00
23229;BME280;11783;50.350;6.576;2023-03-14T01:55:50;94052.00;;;8.11;100.00
23229;BME280;11783;50.350;6.576;2023-03-14T01:58:18;94047.41;;;8.22;100.00
23229;BME280;11783;50.350;6.576;2023-03-14T02:00:45;94040.06;;;8.14;100.00
23229;BME280;11783;50.350;6.576;2023-03-14T02:03:14;94043.84;;;8.08;100.00
23229;BME280;11783;50.350;6.576;2023-03-14T02:05:42;94037.56;;;7.99;100.00
23229;BME280;11783;50.350;6.576;2023-03-14T02:08:10;94045.19;;;8.05;100.00
23229;BME280;11783;50.350;6.576;2023-03-14T02:10:41;94036.47;;;8.05;100.00
23229;BME280;11783;50.350;6.576;2023-03-14T02:13:08;94027.91;;;8.13;100.00
23229;BME280;11783;50.350;6.576;2023-03-14T02:15:34;94036.41;;;8.10;100.00
23229;BME280;11783;50.350;6.576;2023-03-14T02:18:01;94024.31;;;8.04;100.00
23229;BME280;11783;50.350;6.576;2023-03-14T02:23:12;94010.09;;;7.95;100.00
23229;BME280;11783;50.350;6.576;2023-03-14T02:26:10;94010.91;;;7.95;100.00
23229;BME280;11783;50.350;6.576;2023-03-14T02:28:36;94011.28;;;7.83;100.00
23229;BME280;11783;50.350;6.576;2023-03-14T02:31:01;94010.31;;;7.74;100.00
23229;BME280;11783;50.350;6.576;2023-03-14T02:33:27;94030.63;;;7.79;100.00
23229;BME280;11783;50.350;6.576;2023-03-14T02:35:56;94024.53;;;7.78;100.00
23229;BME280;11783;50.350;6.576;2023-03-14T02:41:15;93993.84;;;7.82;100.00
23229;BME280;11783;50.350;6.576;2023-03-14T02:43:40;93969.88;;;7.74;100.00
23229;BME280;11783;50.350;6.576;2023-03-14T02:46:07;93983.88;;;7.74;100.00
23229;BME280;11783;50.350;6.576;2023-03-14T02:48:45;93970.88;;;7.78;100.00
23229;BME280;11783;50.350;6.576;2023-03-14T02:51:12;93958.56;;;7.68;100.00
23229;BME280;11783;50.350;6.576;2023-03-14T02:53:39;93955.00;;;7.78;100.00
23229;BME280;11783;50.350;6.576;2023-03-14T02:56:07;93952.75;;;7.66;100.00
23229;BME280;11783;50.350;6.576;2023-03-14T02:58:33;93957.53;;;7.64;100.00
23229;BME280;11783;50.350;6.576;2023-03-14T03:00:58;93939.06;;;7.59;100.00
23229;BME280;11783;50.350;6.576;2023-03-14T03:03:24;93944.63;;;7.63;100.00
23229;BME280;11783;50.350;6.576;2023-03-14T03:05:50;93950.72;;;7.58;100.00
23229;BME280;11783;50.350;6.576;2023-03-14T03:08:16;93949.34;;;7.66;100.00
23229;BME280;11783;50.350;6.576;2023-03-14T03:10:42;93956.75;;;7.64;100.00
23229;BME280;11783;50.350;6.576;2023-03-14T03:13:07;93962.06;;;7.58;100.00
23229;BME280;11783;50.350;6.576;2023-03-14T03:15:32;93955.72;;;7.59;100.00
23229;BME280;11783;50.350;6.576;2023-03-14T03:17:58;93955.50;;;7.56;100.00
23229;BME280;11783;50.350;6.576;2023-03-14T03:20:23;93949.13;;;7.57;100.00
23229;BME280;11783;50.350;6.576;2023-03-14T03:22:49;93942.75;;;7.63;100.00
23229;BME280;11783;50.350;6.576;2023-03-14T03:25:15;93938.00;;;7.60;100.00
23229;BME280;11783;50.350;6.576;2023-03-14T03:27:40;93933.06;;;7.53;100.00
23229;BME280;11783;50.350;6.576;2023-03-14T03:30:07;93937.06;;;7.51;100.00
23229;BME280;11783;50.350;6.576;2023-03-14T03:32:32;93925.97;;;7.49;100.00
23229;BME280;11783;50.350;6.576;2023-03-14T03:34:58;93911.06;;;7.58;100.00
23229;BME280;11783;50.350;6.576;2023-03-14T03:37:24;93916.03;;;7.65;100.00
23229;BME280;11783;50.350;6.576;2023-03-14T03:39:52;93901.84;;;7.55;100.00
23229;BME280;11783;50.350;6.576;2023-03-14T03:42:18;93919.13;;;7.43;100.00
23229;BME280;11783;50.350;6.576;2023-03-14T03:44:44;93911.22;;;7.43;100.00
23229;BME280;11783;50.350;6.576;2023-03-14T03:47:10;93903.03;;;7.44;100.00
23229;BME280;11783;50.350;6.576;2023-03-14T03:49:35;93883.75;;;7.44;100.00
23229;BME280;11783;50.350;6.576;2023-03-14T03:52:00;93879.47;;;7.48;100.00
23229;BME280;11783;50.350;6.576;2023-03-14T03:54:26;93874.69;;;7.50;100.00
23229;BME280;11783;50.350;6.576;2023-03-14T03:56:52;93883.47;;;7.45;100.00
23229;BME280;11783;50.350;6.576;2023-03-14T03:59:17;93875.84;;;7.39;100.00
23229;BME280;11783;50.350;6.576;2023-03-14T04:01:43;93876.91;;;7.38;100.00
23229;BME280;11783;50.350;6.576;2023-03-14T04:04:08;93881.84;;;7.49;100.00
23229;BME280;11783;50.350;6.576;2023-03-14T04:06:34;93876.34;;;7.41;100.00
23229;BME280;11783;50.350;6.576;2023-03-14T04:08:59;93881.59;;;7.46;100.00
23229;BME280;11783;50.350;6.576;2023-03-14T04:11:25;93893.75;;;7.47;100.00
23229;BME280;11783;50.350;6.576;2023-03-14T04:13:50;93897.41;;;7.51;100.00
23229;BME280;11783;50.350;6.576;2023-03-14T04:16:21;93910.44;;;7.42;100.00
23229;BME280;11783;50.350;6.576;2023-03-14T04:18:47;93893.75;;;7.47;100.00
23229;BME280;11783;50.350;6.576;2023-03-14T04:21:12;93912.25;;;7.47;100.00
23229;BME280;11783;50.350;6.576;2023-03-14T04:23:38;93900.38;;;7.44;100.00
23229;BME280;11783;50.350;6.576;2023-03-14T04:26:03;93897.28;;;7.37;100.00
23229;BME280;11783;50.350;6.576;2023-03-14T04:28:29;93890.13;;;7.38;100.00
23229;BME280;11783;50.350;6.576;2023-03-14T04:30:54;93888.63;;;7.32;100.00
23229;BME280;11783;50.350;6.576;2023-03-14T04:33:19;93875.91;;;7.34;100.00
23229;BME280;11783;50.350;6.576;2023-03-14T04:35:45;93867.91;;;7.44;100.00
23229;BME280;11783;50.350;6.576;2023-03-14T04:38:12;93874.56;;;7.36;100.00
23229;BME280;11783;50.350;6.576;2023-03-14T04:40:39;93871.69;;;7.33;100.00
23229;BME280;11783;50.350;6.576;2023-03-14T04:43:05;93869.47;;;7.16;100.00
23229;BME280;11783;50.350;6.576;2023-03-14T04:45:30;93867.75;;;7.30;100.00
23229;BME280;11783;50.350;6.576;2023-03-14T04:47:55;93872.34;;;7.19;100.00
23229;BME280;11783;50.350;6.576;2023-03-14T04:50:21;93878.41;;;7.20;100.00
23229;BME280;11783;50.350;6.576;2023-03-14T04:52:46;93865.03;;;7.11;100.00
23229;BME280;11783;50.350;6.576;2023-03-14T04:55:11;93867.13;;;7.14;100.00
23229;BME280;11783;50.350;6.576;2023-03-14T04:57:37;93860.47;;;7.17;100.00
23229;BME280;11783;50.350;6.576;2023-03-14T05:00:03;93867.97;;;7.10;100.00
23229;BME280;11783;50.350;6.576;2023-03-14T05:02:33;93861.41;;;7.02;100.00
23229;BME280;11783;50.350;6.576;2023-03-14T05:04:58;93855.56;;;7.05;100.00
23229;BME280;11783;50.350;6.576;2023-03-14T05:07:23;93857.13;;;7.11;100.00
23229;BME280;11783;50.350;6.576;2023-03-14T05:09:49;93850.44;;;7.19;100.00
23229;BME280;11783;50.350;6.576;2023-03-14T05:12:14;93848.50;;;7.24;100.00
23229;BME280;11783;50.350;6.576;2023-03-14T05:14:39;93856.78;;;7.18;100.00
23229;BME280;11783;50.350;6.576;2023-03-14T05:17:05;93849.97;;;7.12;100.00
23229;BME280;11783;50.350;6.576;2023-03-14T05:19:30;93858.63;;;7.17;100.00
23229;BME280;11783;50.350;6.576;2023-03-14T05:21:56;93853.91;;;7.14;100.00
23229;BME280;11783;50.350;6.576;2023-03-14T05:24:22;93856.56;;;7.14;100.00
23229;BME280;11783;50.350;6.576;2023-03-14T05:26:47;93841.66;;;7.23;100.00
23229;BME280;11783;50.350;6.576;2023-03-14T05:29:12;93842.19;;;7.25;100.00
23229;BME280;11783;50.350;6.576;2023-03-14T05:31:38;93838.06;;;7.14;100.00
23229;BME280;11783;50.350;6.576;2023-03-14T05:34:03;93846.72;;;7.20;100.00
23229;BME280;11783;50.350;6.576;2023-03-14T05:36:28;93839.53;;;7.25;100.00
23229;BME280;11783;50.350;6.576;2023-03-14T05:38:54;93840.59;;;7.24;100.00
23229;BME280;11783;50.350;6.576;2023-03-14T05:41:19;93853.13;;;7.14;100.00
23229;BME280;11783;50.350;6.576;2023-03-14T05:43:44;93839.97;;;7.09;100.00
23229;BME280;11783;50.350;6.576;2023-03-14T05:46:10;93848.19;;;7.07;100.00
23229;BME280;11783;50.350;6.576;2023-03-14T05:48:35;93821.22;;;7.05;100.00
23229;BME280;11783;50.350;6.576;2023-03-14T05:51:00;93818.59;;;7.05;100.00
23229;BME280;11783;50.350;6.576;2023-03-14T05:53:26;93835.00;;;7.02;100.00
23229;BME280;11783;50.350;6.576;2023-03-14T05:55:55;93820.97;;;7.07;100.00
23229;BME280;11783;50.350;6.576;2023-03-14T05:58:21;93826.25;;;7.07;100.00
23229;BME280;11783;50.350;6.576;2023-03-14T06:00:47;93824.16;;;7.04;100.00
23229;BME280;11783;50.350;6.576;2023-03-14T06:03:13;93809.38;;;7.03;100.00
23229;BME280;11783;50.350;6.576;2023-03-14T06:05:38;93813.84;;;7.07;100.00
23229;BME280;11783;50.350;6.576;2023-03-14T06:08:04;93812.53;;;7.05;100.00
23229;BME280;11783;50.350;6.576;2023-03-14T06:10:30;93813.84;;;7.07;100.00
23229;BME280;11783;50.350;6.576;2023-03-14T06:12:55;93815.63;;;7.12;100.00
23229;BME280;11783;50.350;6.576;2023-03-14T06:15:20;93808.94;;;7.19;100.00
23229;BME280;11783;50.350;6.576;2023-03-14T06:17:46;93807.84;;;7.25;100.00
23229;BME280;11783;50.350;6.576;2023-03-14T06:20:11;93812.16;;;7.16;100.00
23229;BME280;11783;50.350;6.576;2023-03-14T06:22:37;93809.22;;;7.18;100.00
23229;BME280;11783;50.350;6.576;2023-03-14T06:25:04;93814.78;;;7.16;100.00
23229;BME280;11783;50.350;6.576;2023-03-14T06:27:29;93814.56;;;7.13;100.00
23229;BME280;11783;50.350;6.576;2023-03-14T06:29:55;93817.34;;;7.26;100.00
23229;BME280;11783;50.350;6.576;2023-03-14T06:32:21;93803.00;;;7.09;100.00
23229;BME280;11783;50.350;6.576;2023-03-14T06:34:46;93802.72;;;7.10;100.00
23229;BME280;11783;50.350;6.576;2023-03-14T06:37:11;93796.03;;;7.18;100.00
23229;BME280;11783;50.350;6.576;2023-03-14T06:39:37;93814.72;;;7.21;100.00
23229;BME280;11783;50.350;6.576;2023-03-14T06:42:03;93800.50;;;7.17;100.00
23229;BME280;11783;50.350;6.576;2023-03-14T06:44:29;93815.91;;;7.10;100.00
23229;BME280;11783;50.350;6.576;2023-03-14T06:46:54;93809.59;;;7.06;100.00
23229;BME280;11783;50.350;6.576;2023-03-14T06:49:19;93813.22;;;7.15;100.00
23229;BME280;11783;50.350;6.576;2023-03-14T06:51:44;93810.28;;;7.17;100.00
23229;BME280;11783;50.350;6.576;2023-03-14T06:54:10;93814.69;;;7.26;100.00
23229;BME280;11783;50.350;6.576;2023-03-14T06:56:35;93819.50;;;7.19;100.00
23229;BME280;11783;50.350;6.576;2023-03-14T06:59:00;93822.09;;;7.24;100.00
23229;BME280;11783;50.350;6.576;2023-03-14T07:01:28;93821.78;;;7.31;100.00
23229;BME280;11783;50.350;6.576;2023-03-14T07:03:55;93832.66;;;7.24;100.00
23229;BME280;11783;50.350;6.576;2023-03-14T07:06:21;93822.88;;;7.25;100.00
23229;BME280;11783;50.350;6.576;2023-03-14T07:08:47;93826.00;;;7.32;100.00
23229;BME280;11783;50.350;6.576;2023-03-14T07:11:12;93817.00;;;7.33;100.00
23229;BME280;11783;50.350;6.576;2023-03-14T07:13:38;93820.13;;;7.35;100.00
23229;BME280;11783;50.350;6.576;2023-03-14T07:16:04;93823.41;;;7.27;100.00
23229;BME280;11783;50.350;6.576;2023-03-14T07:18:30;93835.84;;;7.26;100.00
23229;BME280;11783;50.350;6.576;2023-03-14T07:20:55;93826.72;;;7.38;100.00
23229;BME280;11783;50.350;6.576;2023-03-14T07:23:21;93828.00;;;7.40;100.00
23229;BME280;11783;50.350;6.576;2023-03-14T07:25:46;93842.97;;;7.50;100.00
23229;BME280;11783;50.350;6.576;2023-03-14T07:28:12;93827.13;;;7.50;100.00
23229;BME280;11783;50.350;6.576;2023-03-14T07:30:37;93826.75;;;7.56;100.00
23229;BME280;11783;50.350;6.576;2023-03-14T07:33:03;93826.66;;;7.67;100.00
23229;BME280;11783;50.350;6.576;2023-03-14T07:35:28;93834.81;;;7.70;100.00
23229;BME280;11783;50.350;6.576;2023-03-14T07:37:53;93842.84;;;7.60;100.00
23229;BME280;11783;50.350;6.576;2023-03-14T07:40:19;93839.31;;;7.70;100.00
23229;BME280;11783;50.350;6.576;2023-03-14T07:42:44;93831.59;;;7.73;100.00
23229;BME280;11783;50.350;6.576;2023-03-14T07:45:10;93839.81;;;7.72;100.00
23229;BME280;11783;50.350;6.576;2023-03-14T07:47:35;93838.13;;;7.81;100.00
23229;BME280;11783;50.350;6.576;2023-03-14T07:50:03;93848.75;;;7.76;100.00
23229;BME280;11783;50.350;6.576;2023-03-14T07:52:28;93842.34;;;7.82;100.00
23229;BME280;11783;50.350;6.576;2023-03-14T07:54:54;93854.78;;;7.81;100.00
23229;BME280;11783;50.350;6.576;2023-03-14T07:57:19;93842.78;;;7.89;100.00
23229;BME280;11783;50.350;6.576;2023-03-14T07:59:44;93858.56;;;7.94;100.00
23229;BME280;11783;50.350;6.576;2023-03-14T08:02:11;93856.06;;;7.84;100.00
23229;BME280;11783;50.350;6.576;2023-03-14T08:04:37;93863.75;;;7.80;100.00
23229;BME280;11783;50.350;6.576;2023-03-14T08:07:03;93859.09;;;7.72;100.00
23229;BME280;11783;50.350;6.576;2023-03-14T08:09:29;93869.91;;;7.76;100.00
23229;BME280;11783;50.350;6.576;2023-03-14T08:11:54;93862.25;;;7.74;100.00
23229;BME280;11783;50.350;6.576;2023-03-14T08:14:20;93864.31;;;7.77;100.00
23229;BME280;11783;50.350;6.576;2023-03-14T08:16:45;93872.56;;;7.95;100.00
23229;BME280;11783;50.350;6.576;2023-03-14T08:19:11;93875.22;;;7.95;100.00
23229;BME280;11783;50.350;6.576;2023-03-14T08:21:36;93903.91;;;8.06;100.00
23229;BME280;11783;50.350;6.576;2023-03-14T08:24:02;93880.91;;;8.07;100.00
23229;BME280;11783;50.350;6.576;2023-03-14T08:26:27;93881.75;;;8.02;100.00
23229;BME280;11783;50.350;6.576;2023-03-14T08:28:52;93880.03;;;8.11;100.00
23229;BME280;11783;50.350;6.576;2023-03-14T08:31:18;93880.81;;;8.12;100.00
23229;BME280;11783;50.350;6.576;2023-03-14T08:33:43;93881.78;;;8.21;100.00
23229;BME280;11783;50.350;6.576;2023-03-14T08:36:09;93885.72;;;8.24;100.00
23229;BME280;11783;50.350;6.576;2023-03-14T08:38:34;93881.31;;;8.14;100.00
23229;BME280;11783;50.350;6.576;2023-03-14T08:41:01;93889.63;;;8.07;100.00
23229;BME280;11783;50.350;6.576;2023-03-14T08:43:27;93885.53;;;8.15;100.00
23229;BME280;11783;50.350;6.576;2023-03-14T08:45:53;93896.28;;;8.24;100.00
23229;BME280;11783;50.350;6.576;2023-03-14T08:48:19;93887.63;;;8.18;100.00
23229;BME280;11783;50.350;6.576;2023-03-14T08:50:45;93894.16;;;8.26;100.00
23229;BME280;11783;50.350;6.576;2023-03-14T08:53:11;93892.00;;;8.28;100.00
23229;BME280;11783;50.350;6.576;2023-03-14T08:55:36;93890.00;;;8.19;100.00
23229;BME280;11783;50.350;6.576;2023-03-14T08:58:01;93897.09;;;8.24;100.00
23229;BME280;11783;50.350;6.576;2023-03-14T09:00:27;93890.06;;;8.33;100.00
23229;BME280;11783;50.350;6.576;2023-03-14T09:02:52;93903.59;;;8.32;100.00
23229;BME280;11783;50.350;6.576;2023-03-14T09:05:18;93896.50;;;8.27;100.00
23229;BME280;11783;50.350;6.576;2023-03-14T09:07:43;93895.34;;;8.33;100.00
23229;BME280;11783;50.350;6.576;2023-03-14T09:10:09;93881.94;;;8.48;100.00
23229;BME280;11783;50.350;6.576;2023-03-14T09:12:35;93885.03;;;8.56;100.00
23229;BME280;11783;50.350;6.576;2023-03-14T09:15:00;93888.69;;;8.60;100.00
23229;BME280;11783;50.350;6.576;2023-03-14T09:17:25;93891.94;;;8.70;100.00
23229;BME280;11783;50.350;6.576;2023-03-14T09:19:51;93892.00;;;8.84;100.00
23229;BME280;11783;50.350;6.576;2023-03-14T09:22:16;93899.38;;;8.87;100.00
23229;BME280;11783;50.350;6.576;2023-03-14T09:24:42;93908.25;;;8.96;100.00
23229;BME280;11783;50.350;6.576;2023-03-14T09:27:07;93913.56;;;8.96;100.00
23229;BME280;11783;50.350;6.576;2023-03-14T09:29:33;93909.03;;;8.97;100.00
23229;BME280;11783;50.350;6.576;2023-03-14T09:31:59;93918.75;;;9.01;100.00
23229;BME280;11783;50.350;6.576;2023-03-14T09:34:24;93923.97;;;9.06;100.00
23229;BME280;11783;50.350;6.576;2023-03-14T09:36:50;93929.72;;;9.14;100.00
23229;BME280;11783;50.350;6.576;2023-03-14T09:39:16;93939.34;;;9.23;100.00
23229;BME280;11783;50.350;6.576;2023-03-14T09:41:50;94011.41;;;9.25;100.00
23229;BME280;11783;50.350;6.576;2023-03-14T09:46:50;94059.00;;;8.26;100.00
23229;BME280;11783;50.350;6.576;2023-03-14T09:49:29;94072.66;;;7.80;100.00
23229;BME280;11783;50.350;6.576;2023-03-14T09:51:59;94083.13;;;7.62;100.00
23229;BME280;11783;50.350;6.576;2023-03-14T09:54:44;94087.75;;;7.46;100.00
23229;BME280;11783;50.350;6.576;2023-03-14T09:57:14;94093.97;;;7.21;100.00
23229;BME280;11783;50.350;6.576;2023-03-14T09:59:43;94103.53;;;7.12;100.00
23229;BME280;11783;50.350;6.576;2023-03-14T10:02:20;94107.59;;;6.94;100.00
23229;BME280;11783;50.350;6.576;2023-03-14T10:04:47;94115.03;;;6.82;100.00
23229;BME280;11783;50.350;6.576;2023-03-14T10:07:16;94120.09;;;6.73;100.00
23229;BME280;11783;50.350;6.576;2023-03-14T10:09:45;94110.09;;;6.60;100.00
23229;BME280;11783;50.350;6.576;2023-03-14T10:12:12;94128.91;;;6.43;100.00
23229;BME280;11783;50.350;6.576;2023-03-14T10:14:48;94138.41;;;6.39;100.00
23229;BME280;11783;50.350;6.576;2023-03-14T10:17:15;94139.22;;;6.24;100.00
23229;BME280;11783;50.350;6.576;2023-03-14T10:19:58;94137.91;;;6.12;100.00
23229;BME280;11783;50.350;6.576;2023-03-14T10:22:27;94160.06;;;6.11;100.00
23229;BME280;11783;50.350;6.576;2023-03-14T10:25:00;94167.19;;;6.10;100.00
23229;BME280;11783;50.350;6.576;2023-03-14T10:27:35;94158.75;;;6.13;100.00
23229;BME280;11783;50.350;6.576;2023-03-14T10:30:06;94175.13;;;6.15;100.00
23229;BME280;11783;50.350;6.576;2023-03-14T10:32:35;94180.38;;;6.20;100.00
23229;BME280;11783;50.350;6.576;2023-03-14T10:35:22;94184.31;;;6.28;100.00
23229;BME280;11783;50.350;6.576;2023-03-14T10:38:02;94201.75;;;6.34;100.00
23229;BME280;11783;50.350;6.576;2023-03-14T10:40:31;94211.75;;;6.37;100.00
23229;BME280;11783;50.350;6.576;2023-03-14T10:42:59;94218.88;;;6.36;100.00
23229;BME280;11783;50.350;6.576;2023-03-14T10:51:04;94232.63;;;6.33;100.00
23229;BME280;11783;50.350;6.576;2023-03-14T10:53:41;94246.31;;;6.30;100.00
23229;BME280;11783;50.350;6.576;2023-03-14T10:56:07;94252.38;;;6.41;100.00
23229;BME280;11783;50.350;6.576;2023-03-14T10:58:41;94264.50;;;6.47;100.00
23229;BME280;11783;50.350;6.576;2023-03-14T11:01:32;94279.81;;;6.45;100.00
23229;BME280;11783;50.350;6.576;2023-03-14T11:07:10;94319.41;;;6.50;100.00
23229;BME280;11783;50.350;6.576;2023-03-14T11:10:01;94293.53;;;6.47;100.00
23229;BME280;11783;50.350;6.576;2023-03-14T11:15:31;94322.56;;;6.42;100.00
23229;BME280;11783;50.350;6.576;2023-03-14T11:29:43;94371.00;;;5.90;100.00
23229;BME280;11783;50.350;6.576;2023-03-14T11:31:43;94375.69;;;5.88;100.00
23229;BME280;11783;50.350;6.576;2023-03-14T11:36:46;94385.16;;;5.79;100.00
23229;BME280;11783;50.350;6.576;2023-03-14T11:39:17;94390.19;;;5.81;100.00
23229;BME280;11783;50.350;6.576;2023-03-14T11:41:48;94420.50;;;5.83;100.00
23229;BME280;11783;50.350;6.576;2023-03-14T11:44:19;94437.13;;;5.84;100.00
23229;BME280;11783;50.350;6.576;2023-03-14T11:46:52;94438.16;;;5.77;100.00
23229;BME280;11783;50.350;6.576;2023-03-14T11:51:55;94468.69;;;5.73;100.00
23229;BME280;11783;50.350;6.576;2023-03-14T11:57:05;94474.97;;;5.62;100.00
23229;BME280;11783;50.350;6.576;2023-03-14T12:05:49;94493.47;;;5.35;100.00
23229;BME280;11783;50.350;6.576;2023-03-14T12:10:46;94514.47;;;5.25;100.00
23229;BME280;11783;50.350;6.576;2023-03-14T12:13:15;94528.69;;;5.24;100.00
23229;BME280;11783;50.350;6.576;2023-03-14T12:15:47;94519.47;;;5.22;100.00
23229;BME280;11783;50.350;6.576;2023-03-14T12:20:57;94542.38;;;5.21;100.00
23229;BME280;11783;50.350;6.576;2023-03-14T12:23:24;94557.31;;;5.15;100.00
23229;BME280;11783;50.350;6.576;2023-03-14T12:28:42;94572.56;;;5.13;100.00
23229;BME280;11783;50.350;6.576;2023-03-14T12:39:17;94589.72;;;4.89;100.00
23229;BME280;11783;50.350;6.576;2023-03-14T12:41:46;94606.06;;;4.91;100.00
23229;BME280;11783;50.350;6.576;2023-03-14T12:46:57;94610.88;;;4.77;100.00
23229;BME280;11783;50.350;6.576;2023-03-14T12:49:29;94616.44;;;4.81;100.00
23229;BME280;11783;50.350;6.576;2023-03-14T12:52:00;94615.91;;;4.79;100.00
23229;BME280;11783;50.350;6.576;2023-03-14T12:59:55;94639.69;;;4.84;100.00
23229;BME280;11783;50.350;6.576;2023-03-14T13:02:42;94645.94;;;4.83;100.00
23229;BME280;11783;50.350;6.576;2023-03-14T13:05:14;94656.19;;;4.79;100.00
23229;BME280;11783;50.350;6.576;2023-03-14T13:10:25;94661.03;;;4.88;100.00
23229;BME280;11783;50.350;6.576;2023-03-14T13:12:56;94661.53;;;4.84;100.00
23229;BME280;11783;50.350;6.576;2023-03-14T13:17:59;94683.78;;;4.99;100.00
23229;BME280;11783;50.350;6.576;2023-03-14T13:20:32;94672.84;;;5.07;100.00
23229;BME280;11783;50.350;6.576;2023-03-14T13:22:59;94681.81;;;5.11;100.00
23229;BME280;11783;50.350;6.576;2023-03-14T13:25:29;94693.16;;;5.11;100.00
23229;BME280;11783;50.350;6.576;2023-03-14T13:27:55;94701.50;;;5.03;100.00
23229;BME280;11783;50.350;6.576;2023-03-14T13:32:46;94712.81;;;5.04;100.00
23229;BME280;11783;50.350;6.576;2023-03-14T13:35:21;94727.75;;;4.98;100.00
23229;BME280;11783;50.350;6.576;2023-03-14T13:37:52;94725.06;;;4.93;100.00
23229;BME280;11783;50.350;6.576;2023-03-14T13:40:25;94730.81;;;4.90;100.00
23229;BME280;11783;50.350;6.576;2023-03-14T13:45:50;94739.25;;;4.92;100.00
23229;BME280;11783;50.350;6.576;2023-03-14T13:48:16;94750.34;;;4.94;100.00
23229;BME280;11783;50.350;6.576;2023-03-14T13:51:00;94758.00;;;4.96;100.00
23229;BME280;11783;50.350;6.576;2023-03-14T13:53:26;94756.59;;;4.88;100.00
23229;BME280;11783;50.350;6.576;2023-03-14T13:55:52;94761.56;;;4.84;100.00
23229;BME280;11783;50.350;6.576;2023-03-14T13:58:29;94775.41;;;4.80;100.00
23229;BME280;11783;50.350;6.576;2023-03-14T14:00:58;94771.91;;;4.74;100.00
23229;BME280;11783;50.350;6.576;2023-03-14T14:03:25;94771.91;;;4.74;100.00
23229;BME280;11783;50.350;6.576;2023-03-14T14:05:50;94779.75;;;4.69;100.00
23229;BME280;11783;50.350;6.576;2023-03-14T14:08:16;94795.00;;;4.67;100.00
23229;BME280;11783;50.350;6.576;2023-03-14T14:10:41;94797.28;;;4.64;100.00
23229;BME280;11783;50.350;6.576;2023-03-14T14:13:11;94808.16;;;4.67;100.00
23229;BME280;11783;50.350;6.576;2023-03-14T14:15:43;94816.44;;;4.59;100.00
23229;BME280;11783;50.350;6.576;2023-03-14T14:18:12;94831.50;;;4.47;100.00
23229;BME280;11783;50.350;6.576;2023-03-14T14:20:41;94821.44;;;4.44;100.00
23229;BME280;11783;50.350;6.576;2023-03-14T14:23:17;94837.72;;;4.41;100.00